Time;durP1;ratioP1;P1;durP2;ratioP2;P2;SDS_P1;SDS_P2;PMS_P1;PMS_P2;Temp;Humidity;BMP_temperature;BMP_pressure;BME280_temperature;BME280_humidity;BME280_pressure;Samples;Min_cycle;Max_cycle;Signal;HPM_P1;HPM_P2
2023/03/27 00:01:04;;;;;;;9.95;1.58;;;0.70;85.30;;;;;;4975295;28;20038;-87
2023/03/27 00:03:30;;;;;;;8.70;1.10;;;0.70;85.30;;;;;;4991217;28;20030;-88
2023/03/27 00:06:01;;;;;;;5.95;1.60;;;0.60;85.40;;;;;;4974794;28;20431;-87
2023/03/27 00:08:28;;;;;;;6.30;0.90;;;0.70;85.80;;;;;;4992180;28;20478;-88
2023/03/27 00:10:54;;;;;;;11.60;1.70;;;0.80;85.40;;;;;;4989721;28;20051;-88
2023/03/27 00:13:20;;;;;;;8.80;1.30;;;0.70;85.30;;;;;;4978439;28;20029;-89
2023/03/27 00:15:45;;;;;;;7.80;1.38;;;0.70;85.50;;;;;;4975518;28;20089;-89
2023/03/27 00:18:12;;;;;;;13.38;1.50;;;0.70;85.00;;;;;;4991040;28;20101;-87
2023/03/27 00:20:38;;;;;;;6.05;1.50;;;0.80;85.00;;;;;;4990669;28;20037;-88
2023/03/27 00:23:05;;;;;;;7.32;1.15;;;0.80;84.90;;;;;;4985337;28;20023;-87
2023/03/27 00:25:31;;;;;;;3.88;1.08;;;0.70;85.00;;;;;;4992739;28;20282;-89
2023/03/27 00:27:57;;;;;;;7.18;1.17;;;0.70;84.80;;;;;;4991219;28;20079;-86
2023/03/27 00:30:25;;;;;;;7.25;1.55;;;0.70;84.50;;;;;;4990132;28;20057;-89
2023/03/27 00:32:51;;;;;;;8.50;1.35;;;0.80;84.10;;;;;;4993346;28;20041;-89
2023/03/27 00:35:16;;;;;;;5.65;0.82;;;0.70;84.00;;;;;;4976810;28;20086;-85
2023/03/27 00:37:42;;;;;;;9.15;1.00;;;0.70;84.00;;;;;;4994111;28;20065;-86
2023/03/27 00:40:17;;;;;;;4.07;0.90;;;0.60;84.10;;;;;;4993895;28;20060;-89
2023/03/27 00:42:49;;;;;;;4.63;0.90;;;0.70;83.50;;;;;;4993529;28;20078;-89
2023/03/27 00:45:22;;;;;;;3.85;1.20;;;0.60;83.80;;;;;;4993510;28;20038;-89
2023/03/27 00:47:53;;;;;;;8.50;1.20;;;0.60;83.40;;;;;;4997095;28;20037;-89
2023/03/27 00:50:30;;;;;;;4.85;1.20;;;0.60;83.10;;;;;;5001960;28;20045;-87
2023/03/27 00:52:59;;;;;;;4.55;1.15;;;0.70;82.80;;;;;;4987966;28;20135;-87
2023/03/27 00:55:29;;;;;;;5.82;1.10;;;0.60;82.80;;;;;;4991446;28;20156;-89
2023/03/27 00:58:00;;;;;;;9.10;1.17;;;0.60;82.90;;;;;;4981235;28;20404;-86
2023/03/27 01:00:26;;;;;;;3.67;1.00;;;0.60;82.40;;;;;;4996035;28;20133;-88
2023/03/27 01:02:54;;;;;;;7.35;1.40;;;0.60;82.40;;;;;;4982849;28;20037;-89
2023/03/27 01:05:20;;;;;;;9.02;1.20;;;0.50;82.30;;;;;;5004545;28;20371;-88
2023/03/27 01:07:47;;;;;;;4.60;0.82;;;0.60;82.10;;;;;;4999586;28;20049;-86
2023/03/27 01:10:15;;;;;;;3.75;0.80;;;0.60;81.80;;;;;;4985166;28;20053;-88
2023/03/27 01:12:58;;;;;;;4.38;1.15;;;0.70;81.20;;;;;;4974810;28;20038;-88
2023/03/27 01:15:37;;;;;;;4.75;0.90;;;0.70;81.30;;;;;;4997694;28;20049;-88
2023/03/27 01:18:45;;;;;;;3.20;1.13;;;0.70;81.70;;;;;;4995126;28;20489;-89
2023/03/27 01:21:25;;;;;;;2.92;1.05;;;0.60;82.00;;;;;;4991260;28;20040;-89
2023/03/27 01:24:21;;;;;;;4.83;1.67;;;0.70;82.10;;;;;;4990086;28;20553;-88
2023/03/27 01:27:01;;;;;;;5.85;1.30;;;0.80;82.10;;;;;;4983382;28;20033;-88
2023/03/27 01:29:49;;;;;;;4.38;1.23;;;0.80;81.80;;;;;;4992088;28;20030;-88
2023/03/27 01:32:40;;;;;;;5.82;1.10;;;0.80;81.80;;;;;;4991841;28;20038;-89
2023/03/27 01:35:13;;;;;;;5.75;0.82;;;0.90;81.70;;;;;;4984264;28;20328;-89
2023/03/27 01:38:13;;;;;;;5.40;0.93;;;0.80;82.10;;;;;;4991014;28;20034;-88
2023/03/27 01:40:59;;;;;;;12.85;1.27;;;0.80;82.20;;;;;;4992455;28;20023;-89
2023/03/27 01:43:35;;;;;;;2.83;1.13;;;0.80;82.40;;;;;;4991629;28;20086;-87
2023/03/27 01:46:05;;;;;;;3.28;1.15;;;0.70;82.90;;;;;;4999507;28;20062;-88
2023/03/27 01:48:56;;;;;;;2.22;1.05;;;0.80;82.90;;;;;;5000707;28;20042;-88
2023/03/27 01:51:35;;;;;;;4.38;0.90;;;0.70;82.70;;;;;;4997881;28;20100;-89
2023/03/27 01:54:17;;;;;;;7.15;1.30;;;0.60;82.70;;;;;;5009687;28;20104;-87
2023/03/27 01:56:50;;;;;;;4.72;1.30;;;0.50;82.90;;;;;;4999274;28;20081;-89
2023/03/27 01:59:18;;;;;;;12.18;1.55;;;0.40;83.40;;;;;;5004176;28;20049;-88
2023/03/27 02:01:50;;;;;;;6.35;1.45;;;0.40;83.70;;;;;;4997524;28;20026;-89
2023/03/27 02:04:25;;;;;;;2.67;0.70;;;0.30;83.60;;;;;;4992508;28;20031;-86
2023/03/27 02:07:01;;;;;;;2.88;0.90;;;0.30;84.00;;;;;;4998492;28;20121;-87
2023/03/27 02:09:48;;;;;;;6.45;1.10;;;0.20;84.20;;;;;;4997048;28;20082;-86
2023/03/27 02:12:18;;;;;;;8.30;1.52;;;0.30;84.50;;;;;;4998486;28;20050;-89
2023/03/27 02:14:48;;;;;;;;;;;0.30;84.40;;;;;;5000769;28;20554;-87
2023/03/27 02:17:17;;;;;;;4.53;1.20;;;0.30;84.50;;;;;;4997745;28;19976;-88
2023/03/27 02:19:49;;;;;;;5.18;1.17;;;0.30;84.60;;;;;;5000426;28;20065;-89
2023/03/27 02:22:15;;;;;;;4.57;1.58;;;0.30;84.60;;;;;;4996369;28;20114;-89
2023/03/27 02:24:42;;;;;;;5.00;0.98;;;0.30;84.70;;;;;;4999821;28;20088;-88
2023/03/27 02:27:21;;;;;;;1.77;0.88;;;0.40;85.20;;;;;;5001017;28;20022;-88
2023/03/27 02:30:12;;;;;;;7.60;1.17;;;0.40;85.10;;;;;;4996763;28;20026;-88
2023/03/27 02:32:46;;;;;;;4.75;1.10;;;0.50;85.10;;;;;;4999667;28;20148;-88
2023/03/27 02:35:47;;;;;;;5.82;1.20;;;0.60;85.20;;;;;;4997061;28;20136;-89
2023/03/27 02:38:25;;;;;;;7.53;1.27;;;0.60;85.40;;;;;;4992770;28;20042;-86
2023/03/27 02:41:07;;;;;;;5.45;0.82;;;0.70;85.70;;;;;;4973737;28;20042;-89
2023/03/27 02:44:14;;;;;;;5.05;0.90;;;0.70;86.00;;;;;;4988533;28;20110;-88
2023/03/27 02:47:00;;;;;;;7.07;1.63;;;0.60;86.70;;;;;;4995498;28;20038;-89
2023/03/27 02:49:33;;;;;;;6.75;1.50;;;0.50;87.20;;;;;;5001412;28;20156;-87
2023/03/27 02:52:18;;;;;;;4.43;0.95;;;0.50;87.70;;;;;;5006659;28;20026;-88
2023/03/27 02:54:51;;;;;;;5.15;1.27;;;0.50;88.10;;;;;;4989736;28;20240;-89
2023/03/27 02:57:21;;;;;;;7.88;1.42;;;0.40;88.40;;;;;;4995287;28;20121;-89
2023/03/27 02:59:52;;;;;;;5.22;1.00;;;0.40;89.00;;;;;;4995837;28;20036;-88
2023/03/27 03:02:25;;;;;;;4.57;1.25;;;0.30;89.50;;;;;;5000890;28;20112;-86
2023/03/27 03:05:16;;;;;;;7.30;1.83;;;0.30;89.70;;;;;;5003303;28;20106;-87
2023/03/27 03:07:44;;;;;;;5.45;1.30;;;0.30;90.00;;;;;;5011102;28;20078;-87
2023/03/27 03:10:10;;;;;;;8.48;1.20;;;0.30;90.40;;;;;;4982298;28;20026;-88
2023/03/27 03:12:36;;;;;;;7.00;1.90;;;0.30;90.60;;;;;;4977630;28;20026;-87
2023/03/27 03:15:02;;;;;;;7.07;1.40;;;0.20;90.90;;;;;;5000505;28;20038;-87
2023/03/27 03:17:27;;;;;;;6.68;1.45;;;0.30;91.10;;;;;;5005068;28;20034;-87
2023/03/27 03:19:53;;;;;;;7.35;1.38;;;0.20;91.10;;;;;;4995673;28;20182;-87
2023/03/27 03:22:18;;;;;;;4.65;1.20;;;0.20;91.40;;;;;;5004368;28;20088;-87
2023/03/27 03:24:44;;;;;;;7.93;1.30;;;0.20;91.70;;;;;;5009185;28;20038;-86
2023/03/27 03:27:10;;;;;;;5.60;1.48;;;0.20;91.90;;;;;;4978357;28;20042;-87
2023/03/27 03:29:36;;;;;;;14.23;1.58;;;0.10;91.90;;;;;;4982544;28;20026;-88
2023/03/27 03:32:05;;;;;;;8.40;1.52;;;0.10;92.20;;;;;;4995835;28;20061;-87
2023/03/27 03:34:32;;;;;;;8.43;1.38;;;0.10;92.50;;;;;;5007619;28;20030;-87
2023/03/27 03:36:58;;;;;;;6.50;1.40;;;0.20;92.70;;;;;;4992794;28;20431;-86
2023/03/27 03:39:24;;;;;;;10.82;1.85;;;0.20;93.10;;;;;;5008427;28;20128;-87
2023/03/27 03:41:50;;;;;;;11.15;1.42;;;0.20;93.10;;;;;;4997040;28;20130;-86
2023/03/27 03:44:15;;;;;;;9.00;1.30;;;0.30;93.30;;;;;;4978223;28;20034;-88
2023/03/27 03:46:41;;;;;;;7.07;1.60;;;0.20;93.40;;;;;;4991119;28;20042;-85
2023/03/27 03:49:07;;;;;;;8.88;1.55;;;0.30;93.70;;;;;;5002003;28;20542;-87
2023/03/27 03:51:33;;;;;;;7.82;1.45;;;0.30;93.60;;;;;;4978986;28;20049;-84
2023/03/27 03:54:00;;;;;;;6.80;1.45;;;0.30;93.60;;;;;;4984082;28;20074;-87
2023/03/27 03:56:26;;;;;;;9.57;1.70;;;0.30;93.70;;;;;;4985540;28;20030;-88
2023/03/27 03:58:52;;;;;;;6.85;1.60;;;0.30;94.00;;;;;;4982107;28;20157;-88
2023/03/27 04:01:19;;;;;;;5.75;1.70;;;0.20;94.10;;;;;;5000378;28;20147;-88
2023/03/27 04:03:45;;;;;;;4.72;1.60;;;0.20;94.20;;;;;;5005405;28;20077;-87
2023/03/27 04:06:11;;;;;;;7.03;1.70;;;0.20;94.50;;;;;;5007138;28;20497;-87
2023/03/27 04:08:36;;;;;;;7.40;1.25;;;0.30;94.50;;;;;;4999630;28;20046;-87
2023/03/27 04:11:03;;;;;;;7.70;1.52;;;0.40;94.50;;;;;;5002058;28;20054;-86
2023/03/27 04:13:28;;;;;;;9.30;1.58;;;0.40;94.50;;;;;;4999029;28;20099;-87
2023/03/27 04:15:54;;;;;;;6.38;1.55;;;0.50;94.40;;;;;;4998198;28;20101;-87
2023/03/27 04:18:19;;;;;;;11.30;1.73;;;0.60;94.40;;;;;;4994742;28;20035;-87
2023/03/27 04:20:49;;;;;;;7.32;1.38;;;0.70;94.50;;;;;;4979620;28;20034;-86
2023/03/27 04:23:18;;;;;;;7.75;1.80;;;0.70;95.00;;;;;;4988880;28;20057;-88
2023/03/27 04:25:45;;;;;;;4.68;1.45;;;0.70;95.40;;;;;;5001632;28;20423;-88
2023/03/27 04:28:15;;;;;;;6.40;1.27;;;0.70;95.60;;;;;;4977578;28;20037;-81
2023/03/27 04:30:42;;;;;;;8.38;1.48;;;0.60;95.90;;;;;;4988186;28;20038;-78
2023/03/27 04:33:17;;;;;;;3.92;1.40;;;0.70;96.10;;;;;;4983474;28;20112;-76
2023/03/27 04:35:44;;;;;;;5.78;1.40;;;0.60;96.10;;;;;;5000627;28;20034;-76
2023/03/27 04:38:10;;;;;;;6.22;1.60;;;0.60;96.10;;;;;;4973828;28;20034;-76
2023/03/27 04:40:37;;;;;;;10.63;1.52;;;0.50;96.20;;;;;;4989768;28;20034;-76
2023/03/27 04:43:02;;;;;;;7.38;1.60;;;0.40;96.30;;;;;;4992373;28;20030;-76
2023/03/27 04:45:28;;;;;;;8.85;1.50;;;0.30;96.40;;;;;;4983173;28;20048;-76
2023/03/27 04:47:53;;;;;;;5.75;1.45;;;0.30;96.50;;;;;;4999053;28;20245;-76
2023/03/27 04:50:19;;;;;;;5.72;1.58;;;0.20;96.60;;;;;;4988189;28;20039;-76
2023/03/27 04:52:46;;;;;;;6.95;1.63;;;0.20;96.60;;;;;;4986556;28;20037;-76
2023/03/27 04:55:11;;;;;;;8.52;1.50;;;0.20;96.60;;;;;;4987447;28;20089;-76
2023/03/27 04:57:37;;;;;;;5.50;1.52;;;0.10;96.70;;;;;;4984816;28;20054;-76
2023/03/27 05:00:17;;;;;;;4.78;1.58;;;0.10;96.80;;;;;;4986458;28;20220;-76
2023/03/27 05:02:43;;;;;;;7.78;1.30;;;0.00;96.80;;;;;;4986513;28;20465;-76
2023/03/27 05:05:09;;;;;;;8.32;1.60;;;0.00;96.80;;;;;;4986852;28;20132;-76
2023/03/27 05:07:35;;;;;;;5.40;1.50;;;0.00;96.90;;;;;;4985289;28;20030;-76
2023/03/27 05:10:01;;;;;;;7.90;1.60;;;0.00;97.00;;;;;;4982102;28;20067;-76
2023/03/27 05:12:27;;;;;;;9.85;1.80;;;0.10;97.00;;;;;;4990462;28;20034;-76
2023/03/27 05:14:52;;;;;;;6.15;1.77;;;0.20;96.90;;;;;;4986465;28;20034;-76
2023/03/27 05:17:19;;;;;;;10.63;2.58;;;0.30;96.80;;;;;;4989282;28;20089;-76
2023/03/27 05:19:44;;;;;;;12.15;2.75;;;0.40;96.70;;;;;;4987358;28;20430;-76
2023/03/27 05:22:10;;;;;;;11.48;2.20;;;0.60;96.40;;;;;;4988299;28;20047;-76
2023/03/27 05:24:36;;;;;;;11.60;1.92;;;0.60;96.20;;;;;;4985364;28;20492;-76
2023/03/27 05:27:02;;;;;;;9.63;1.77;;;0.60;96.20;;;;;;4987773;28;20132;-76
2023/03/27 05:29:28;;;;;;;4.68;1.70;;;0.70;96.20;;;;;;4988707;28;20038;-76
2023/03/27 05:31:53;;;;;;;5.75;1.83;;;0.60;96.00;;;;;;4983409;28;20106;-76
2023/03/27 05:34:19;;;;;;;6.35;1.60;;;0.60;96.00;;;;;;4984692;28;20112;-76
2023/03/27 05:36:45;;;;;;;5.88;2.00;;;0.50;96.10;;;;;;4985169;28;20026;-76
2023/03/27 05:39:11;;;;;;;8.73;2.17;;;0.40;96.10;;;;;;4982379;28;20094;-76
2023/03/27 05:41:37;;;;;;;6.05;1.70;;;0.40;96.20;;;;;;4985726;28;20133;-76
2023/03/27 05:44:02;;;;;;;4.95;1.83;;;0.40;96.40;;;;;;5001334;28;20056;-76
2023/03/27 05:46:28;;;;;;;7.57;2.03;;;0.40;96.50;;;;;;4985748;28;20125;-76
2023/03/27 05:48:53;;;;;;;5.95;2.00;;;0.40;96.60;;;;;;4971304;28;20096;-76
2023/03/27 05:51:19;;;;;;;5.05;2.10;;;0.50;96.70;;;;;;4989643;28;20095;-76
2023/03/27 05:53:45;;;;;;;11.15;2.13;;;0.40;96.70;;;;;;4974627;28;20045;-76
2023/03/27 05:56:10;;;;;;;5.65;1.80;;;0.40;96.70;;;;;;4986649;28;20420;-77
2023/03/27 05:58:37;;;;;;;7.50;1.50;;;0.40;96.80;;;;;;4989971;28;20098;-76
2023/03/27 06:01:03;;;;;;;10.15;1.70;;;0.40;97.00;;;;;;4980601;28;20109;-76
2023/03/27 06:03:29;;;;;;;4.65;1.50;;;0.40;96.90;;;;;;4981621;28;20114;-76
2023/03/27 06:05:58;;;;;;;5.95;1.60;;;0.50;97.00;;;;;;4978173;28;20026;-76
2023/03/27 06:08:25;;;;;;;5.32;1.63;;;0.50;97.00;;;;;;4984839;28;20490;-76
2023/03/27 06:10:50;;;;;;;5.40;1.83;;;0.60;97.10;;;;;;4987308;28;20046;-76
2023/03/27 06:13:16;;;;;;;6.97;1.58;;;0.70;97.00;;;;;;4986180;28;20568;-76
2023/03/27 06:15:42;;;;;;;6.03;1.85;;;0.80;96.60;;;;;;4988008;28;20100;-77
2023/03/27 06:18:08;;;;;;;6.85;1.70;;;1.00;96.50;;;;;;4968153;28;20202;-76
2023/03/27 06:20:36;;;;;;;6.68;1.98;;;1.10;96.20;;;;;;4988624;28;20340;-77
2023/03/27 06:23:02;;;;;;;6.55;1.63;;;1.20;96.10;;;;;;4985051;28;20038;-76
2023/03/27 06:25:33;;;;;;;8.60;1.75;;;1.20;95.80;;;;;;4986242;28;20031;-77
2023/03/27 06:27:59;;;;;;;;;;;1.30;95.70;;;;;;4987552;28;20027;-77
2023/03/27 06:30:26;;;;;;;2.17;1.30;;;1.30;95.50;;;;;;4989570;28;19956;-77
2023/03/27 06:32:53;;;;;;;8.75;1.58;;;1.30;95.20;;;;;;4989624;28;20153;-77
2023/03/27 06:35:20;;;;;;;9.52;1.67;;;1.40;95.30;;;;;;4968887;28;20383;-77
2023/03/27 06:37:49;;;;;;;9.13;1.15;;;1.40;95.10;;;;;;4987758;28;20488;-77
2023/03/27 06:40:21;;;;;;;7.95;1.70;;;1.40;94.80;;;;;;4990459;28;20451;-77
2023/03/27 06:42:50;;;;;;;9.55;1.15;;;1.50;94.50;;;;;;4999650;28;20030;-77
2023/03/27 06:45:16;;;;;;;4.28;1.30;;;1.60;94.20;;;;;;4987832;28;20031;-77
2023/03/27 06:47:49;;;;;;;5.43;1.50;;;1.50;94.30;;;;;;4989831;28;20104;-77
2023/03/27 06:50:15;;;;;;;8.98;1.30;;;1.50;94.30;;;;;;4987779;28;20057;-78
2023/03/27 06:52:41;;;;;;;5.03;1.45;;;1.60;94.50;;;;;;4986671;28;20039;-78
2023/03/27 06:55:08;;;;;;;7.00;1.38;;;1.80;94.40;;;;;;4988194;28;20064;-79
2023/03/27 06:57:34;;;;;;;3.92;1.13;;;1.90;94.30;;;;;;5002380;28;20463;-79
2023/03/27 06:59:59;;;;;;;4.97;1.20;;;2.10;93.90;;;;;;4978880;28;20099;-79
2023/03/27 07:02:25;;;;;;;9.48;1.40;;;2.20;93.30;;;;;;4991289;28;20031;-77
2023/03/27 07:04:51;;;;;;;3.45;1.13;;;2.50;93.20;;;;;;4994662;28;20041;-78
2023/03/27 07:07:16;;;;;;;5.47;1.10;;;2.60;93.00;;;;;;4989518;28;20121;-79
2023/03/27 07:09:42;;;;;;;3.33;1.27;;;2.50;92.70;;;;;;4988556;28;20057;-79
2023/03/27 07:12:08;;;;;;;6.25;1.88;;;2.40;92.70;;;;;;4989045;28;20073;-79
2023/03/27 07:14:33;;;;;;;6.70;1.48;;;2.10;93.10;;;;;;4989701;28;20142;-78
2023/03/27 07:16:59;;;;;;;4.15;1.23;;;2.00;93.60;;;;;;4976644;28;20068;-78
2023/03/27 07:19:26;;;;;;;5.40;1.30;;;1.80;93.90;;;;;;4984152;28;20097;-79
2023/03/27 07:21:52;;;;;;;6.82;1.40;;;1.70;94.20;;;;;;4967130;28;20112;-79
2023/03/27 07:24:17;;;;;;;4.53;1.25;;;1.70;94.40;;;;;;4986566;28;20042;-79
2023/03/27 07:26:43;;;;;;;3.97;1.33;;;1.80;94.50;;;;;;4988378;28;20112;-79
2023/03/27 07:29:09;;;;;;;5.32;1.65;;;2.00;94.50;;;;;;4973371;28;20040;-80
2023/03/27 07:31:36;;;;;;;6.80;1.42;;;2.20;93.90;;;;;;4985468;28;20044;-78
2023/03/27 07:34:02;;;;;;;4.03;1.30;;;2.30;92.40;;;;;;4988486;28;20042;-79
2023/03/27 07:36:28;;;;;;;2.20;1.40;;;2.40;92.10;;;;;;4983958;28;20069;-78
2023/03/27 07:38:53;;;;;;;11.43;1.73;;;2.60;91.80;;;;;;4988693;28;20030;-80
2023/03/27 07:41:19;;;;;;;6.55;1.60;;;2.80;92.10;;;;;;4989529;28;20471;-81
2023/03/27 07:43:45;;;;;;;7.40;1.80;;;2.90;91.10;;;;;;4990445;28;20092;-81
2023/03/27 07:46:10;;;;;;;7.72;1.23;;;3.20;90.80;;;;;;4991031;28;20125;-80
2023/03/27 07:48:37;;;;;;;7.15;2.40;;;3.60;89.70;;;;;;4971578;28;20038;-79
2023/03/27 07:51:03;;;;;;;3.63;1.55;;;3.70;89.30;;;;;;4966908;28;20535;-80
2023/03/27 07:53:28;;;;;;;7.07;1.95;;;3.60;89.00;;;;;;4986057;28;20189;-79
2023/03/27 07:55:56;;;;;;;3.85;1.20;;;3.40;89.00;;;;;;4969785;28;20110;-80
2023/03/27 07:58:23;;;;;;;6.95;1.70;;;3.20;89.70;;;;;;4983599;28;20497;-80
2023/03/27 08:00:51;;;;;;;6.95;1.63;;;3.00;90.10;;;;;;4976072;28;20026;-79
2023/03/27 08:03:18;;;;;;;5.75;1.77;;;2.90;91.00;;;;;;4987883;28;20652;-80
2023/03/27 08:05:50;;;;;;;5.05;1.38;;;2.60;91.80;;;;;;4979472;28;20046;-81
2023/03/27 08:08:16;;;;;;;4.22;1.38;;;2.40;92.70;;;;;;4999264;28;20050;-84
2023/03/27 08:10:41;;;;;;;4.70;1.10;;;2.10;93.60;;;;;;4986776;28;20141;-84
2023/03/27 08:13:07;;;;;;;4.03;1.40;;;1.80;94.30;;;;;;4966687;28;20041;-84
2023/03/27 08:15:32;;;;;;;2.38;1.20;;;1.60;94.90;;;;;;4969103;28;20456;-84
2023/03/27 08:17:58;;;;;;;5.32;1.23;;;1.60;95.80;;;;;;4964905;28;20050;-83
2023/03/27 08:20:24;;;;;;;5.78;1.20;;;1.50;96.10;;;;;;4969484;28;20043;-84
2023/03/27 08:22:51;;;;;;;5.20;1.35;;;1.60;96.30;;;;;;4981732;28;20356;-84
2023/03/27 08:25:17;;;;;;;3.42;1.10;;;1.60;96.40;;;;;;4968798;28;20026;-85
2023/03/27 08:27:45;;;;;;;4.55;1.45;;;1.60;96.60;;;;;;4984804;28;20074;-84
2023/03/27 08:30:13;;;;;;;6.03;1.20;;;1.60;96.50;;;;;;4963690;28;20027;-82
2023/03/27 08:32:40;;;;;;;3.63;1.20;;;1.70;96.30;;;;;;4965813;28;20463;-82
2023/03/27 08:35:06;;;;;;;4.47;1.33;;;1.70;96.50;;;;;;4982581;28;20109;-80
2023/03/27 08:37:32;;;;;;;4.32;1.65;;;1.80;96.50;;;;;;4963461;28;20434;-83
2023/03/27 08:40:00;;;;;;;8.20;1.40;;;2.00;96.50;;;;;;4966185;28;20039;-80
2023/03/27 08:42:39;;;;;;;2.50;0.77;;;2.30;96.70;;;;;;4966160;28;20101;-80
2023/03/27 08:45:28;;;;;;;2.53;0.98;;;2.30;95.60;;;;;;4966249;28;20089;-80
2023/03/27 08:48:06;;;;;;;3.75;1.00;;;2.50;95.90;;;;;;4975737;28;20046;-82
2023/03/27 08:50:45;;;;;;;7.45;1.48;;;2.60;95.50;;;;;;4964649;28;20058;-79
2023/03/27 08:53:20;;;;;;;3.22;1.15;;;2.80;95.70;;;;;;4962760;28;20027;-78
2023/03/27 08:55:45;;;;;;;5.28;1.15;;;3.00;94.50;;;;;;4955822;28;20154;-78
2023/03/27 08:58:19;;;;;;;3.38;1.13;;;3.30;94.90;;;;;;4967107;28;20043;-79
2023/03/27 09:01:02;;;;;;;3.58;1.02;;;3.40;94.00;;;;;;4958434;28;20033;-78
2023/03/27 09:03:33;;;;;;;4.95;1.27;;;4.10;94.70;;;;;;4965147;28;20835;-83
2023/03/27 09:06:05;;;;;;;6.72;1.70;;;4.10;92.60;;;;;;4961007;28;20069;-81
2023/03/27 09:08:39;;;;;;;6.32;1.05;;;4.10;91.60;;;;;;4966792;28;20031;-83
2023/03/27 09:11:28;;;;;;;2.63;0.90;;;4.10;91.50;;;;;;4976474;28;20046;-82
2023/03/27 09:13:53;;;;;;;1.17;0.55;;;4.10;90.70;;;;;;4960717;28;20073;-82
2023/03/27 09:16:32;;;;;;;4.13;0.70;;;4.10;90.40;;;;;;4987720;28;20034;-81
2023/03/27 09:19:10;;;;;;;5.47;1.05;;;4.10;90.50;;;;;;4982555;28;20227;-81
2023/03/27 09:21:53;;;;;;;2.30;0.85;;;4.40;89.60;;;;;;4985294;28;20026;-81
2023/03/27 09:24:27;;;;;;;4.35;1.00;;;4.70;89.90;;;;;;4991971;28;20061;-81
2023/03/27 09:26:53;;;;;;;4.53;1.02;;;5.20;88.70;;;;;;4988265;28;20103;-81
2023/03/27 09:29:23;;;;;;;5.55;0.80;;;5.10;87.80;;;;;;4987139;28;20395;-82
2023/03/27 09:31:51;;;;;;;3.50;1.10;;;4.40;87.20;;;;;;4988031;28;20645;-82
2023/03/27 09:34:27;;;;;;;4.95;1.10;;;3.90;88.80;;;;;;4997408;28;20090;-82
2023/03/27 09:36:54;;;;;;;4.35;0.90;;;3.40;90.60;;;;;;4983841;28;20034;-82
2023/03/27 09:39:26;;;;;;;2.88;1.00;;;3.30;91.60;;;;;;4986624;28;20100;-82
2023/03/27 09:41:59;;;;;;;4.18;0.95;;;3.10;92.30;;;;;;4986556;28;20038;-83
2023/03/27 09:44:32;;;;;;;2.58;0.75;;;3.10;92.90;;;;;;4987286;28;20034;-82
2023/03/27 09:47:06;;;;;;;4.68;0.80;;;3.30;92.70;;;;;;4979765;28;20030;-83
2023/03/27 09:49:33;;;;;;;4.72;0.68;;;3.80;91.60;;;;;;4986585;28;20109;-82
2023/03/27 09:52:00;;;;;;;2.05;0.82;;;4.30;90.80;;;;;;4981228;28;20041;-81
2023/03/27 09:54:30;;;;;;;4.15;1.17;;;4.20;89.50;;;;;;4991078;28;20064;-81
2023/03/27 09:57:05;;;;;;;3.90;0.82;;;4.30;90.10;;;;;;4975623;28;20026;-83
2023/03/27 09:59:55;;;;;;;4.80;0.95;;;4.10;89.70;;;;;;4990219;28;20118;-82
2023/03/27 10:02:24;;;;;;;3.67;0.77;;;3.70;90.40;;;;;;4986326;28;20078;-82
2023/03/27 10:05:27;;;;;;;2.55;0.80;;;3.60;90.90;;;;;;4993496;28;20120;-82
2023/03/27 10:07:52;;;;;;;1.58;0.80;;;3.50;89.00;;;;;;4970656;28;20095;-81
2023/03/27 10:10:19;;;;;;;2.88;0.90;;;3.50;87.60;;;;;;5004928;28;20083;-81
2023/03/27 10:12:54;;;;;;;3.85;0.95;;;4.20;87.50;;;;;;4998462;28;20032;-81
2023/03/27 10:15:37;;;;;;;2.90;0.80;;;4.50;84.10;;;;;;5002637;28;20038;-82
2023/03/27 10:18:07;;;;;;;4.22;0.60;;;4.80;83.40;;;;;;4989608;28;20030;-81
2023/03/27 10:20:33;;;;;;;9.68;0.85;;;5.20;84.90;;;;;;4989342;28;20335;-82
2023/03/27 10:23:07;;;;;;;3.90;0.75;;;5.20;83.80;;;;;;5001475;28;20443;-81
2023/03/27 10:25:38;;;;;;;2.25;0.73;;;5.80;82.90;;;;;;5002180;28;20209;-81
2023/03/27 10:28:15;;;;;;;2.60;0.70;;;5.80;81.30;;;;;;5005032;28;20599;-81
2023/03/27 10:30:41;;;;;;;1.42;0.77;;;5.60;79.00;;;;;;4994345;28;20118;-81
2023/03/27 10:33:06;;;;;;;4.45;0.95;;;5.60;78.10;;;;;;4990198;28;20157;-81
2023/03/27 10:35:38;;;;;;;2.75;0.60;;;5.80;77.80;;;;;;4990231;28;20826;-81
2023/03/27 10:38:10;;;;;;;4.72;0.95;;;5.70;79.30;;;;;;4977576;28;20539;-81
2023/03/27 10:40:37;;;;;;;5.60;0.98;;;5.70;76.90;;;;;;4994340;28;20026;-80
2023/03/27 10:43:09;;;;;;;6.40;1.00;;;6.10;78.20;;;;;;4993712;28;20022;-81
2023/03/27 10:45:49;;;;;;;2.72;0.68;;;6.30;79.40;;;;;;4993400;28;20496;-80
2023/03/27 10:48:37;;;;;;;5.20;0.90;;;5.70;73.90;;;;;;4980503;28;20026;-81
2023/03/27 10:51:07;;;;;;;4.28;0.50;;;6.20;75.10;;;;;;4993378;28;20141;-80
2023/03/27 10:53:40;;;;;;;2.25;0.43;;;6.10;74.70;;;;;;4987354;28;20034;-80
2023/03/27 10:56:23;;;;;;;1.95;0.47;;;6.60;73.30;;;;;;4990654;28;20023;-81
2023/03/27 10:58:56;;;;;;;1.55;0.40;;;6.90;72.40;;;;;;4992068;28;20104;-81
2023/03/27 11:01:30;;;;;;;5.35;0.60;;;7.00;71.60;;;;;;4986056;28;20065;-80
2023/03/27 11:04:17;;;;;;;5.85;0.65;;;7.10;70.70;;;;;;4988269;28;20057;-80
2023/03/27 11:06:45;;;;;;;3.03;0.63;;;7.00;68.90;;;;;;4983155;28;20023;-78
2023/03/27 11:09:33;;;;;;;2.75;0.70;;;7.50;70.90;;;;;;4989933;28;20034;-78
2023/03/27 11:12:08;;;;;;;3.08;0.73;;;7.30;68.90;;;;;;4990222;28;20059;-78
2023/03/27 11:15:01;;;;;;;3.67;0.60;;;6.90;68.90;;;;;;4993525;28;20358;-78
2023/03/27 11:17:41;;;;;;;3.92;0.50;;;7.30;71.30;;;;;;4989289;28;20034;-78
2023/03/27 11:20:19;;;;;;;2.22;0.70;;;7.60;74.60;;;;;;4990818;28;20117;-79
2023/03/27 11:22:56;;;;;;;2.90;0.60;;;7.20;71.90;;;;;;4992991;28;20438;-78
2023/03/27 11:25:59;;;;;;;4.90;0.85;;;7.20;73.70;;;;;;4994755;28;20062;-77
2023/03/27 11:28:33;;;;;;;3.40;0.80;;;7.50;74.90;;;;;;4915310;29;20078;-78
2023/03/27 11:31:36;;;;;;;1.88;0.60;;;7.00;75.40;;;;;;4985342;28;20038;-79
2023/03/27 11:34:31;;;;;;;3.58;0.90;;;6.90;74.40;;;;;;4985066;28;20399;-79
2023/03/27 11:37:15;;;;;;;4.88;0.77;;;6.90;74.20;;;;;;4983593;28;20026;-77
2023/03/27 11:39:47;;;;;;;2.65;0.60;;;6.70;72.80;;;;;;4987592;28;20512;-78
2023/03/27 11:42:21;;;;;;;2.40;0.70;;;6.30;73.00;;;;;;4982133;28;20406;-79
2023/03/27 11:44:47;;;;;;;3.00;0.70;;;6.10;73.90;;;;;;4993717;28;20030;-77
2023/03/27 11:47:52;;;;;;;3.53;0.65;;;5.40;75.90;;;;;;4990870;28;20124;-78
2023/03/27 11:50:28;;;;;;;5.65;0.70;;;5.20;77.90;;;;;;4985978;28;20092;-79
2023/03/27 11:53:15;;;;;;;3.83;0.65;;;5.20;79.00;;;;;;4984058;28;20042;-78
2023/03/27 11:56:09;;;;;;;3.53;0.60;;;5.00;78.40;;;;;;4987195;28;20068;-77
2023/03/27 11:58:57;;;;;;;5.15;0.60;;;4.80;77.80;;;;;;4986342;28;20041;-77
2023/03/27 12:01:33;;;;;;;7.78;1.13;;;4.70;80.00;;;;;;4981339;28;20064;-77
2023/03/27 12:04:05;;;;;;;3.22;0.60;;;4.90;79.10;;;;;;4970571;28;20038;-80
2023/03/27 12:06:46;;;;;;;5.82;1.17;;;4.80;80.50;;;;;;4981540;28;20126;-78
2023/03/27 12:09:22;;;;;;;2.40;0.82;;;4.90;83.00;;;;;;4989974;28;20050;-80
2023/03/27 12:12:10;;;;;;;5.57;0.65;;;4.40;82.30;;;;;;4985717;28;20069;-79
2023/03/27 12:14:45;;;;;;;2.33;0.65;;;4.20;83.90;;;;;;4970532;28;20048;-79
2023/03/27 12:17:44;;;;;;;2.47;0.82;;;3.80;84.50;;;;;;4984278;28;20443;-79
2023/03/27 12:20:40;;;;;;;1.58;0.52;;;3.70;86.30;;;;;;4984700;28;20049;-79
2023/03/27 12:23:36;;;;;;;2.53;0.65;;;3.60;85.60;;;;;;4980637;28;20856;-79
2023/03/27 12:26:32;;;;;;;4.68;0.90;;;3.30;86.10;;;;;;4984867;28;20104;-81
2023/03/27 12:29:03;;;;;;;2.20;0.93;;;3.10;87.70;;;;;;4988240;28;20064;-81
2023/03/27 12:31:47;;;;;;;4.47;0.70;;;3.20;87.20;;;;;;4984448;28;20112;-80
2023/03/27 12:34:48;;;;;;;3.15;0.50;;;3.60;87.80;;;;;;4985010;28;20085;-80
2023/03/27 12:37:16;;;;;;;2.53;0.40;;;3.40;86.70;;;;;;4957557;28;20038;-83
2023/03/27 12:39:48;;;;;;;1.58;0.60;;;3.20;86.20;;;;;;4987208;28;20049;-82
2023/03/27 12:42:35;;;;;;;1.55;0.57;;;3.10;84.50;;;;;;4984916;28;20426;-81
2023/03/27 12:45:16;;;;;;;2.25;0.55;;;4.10;83.50;;;;;;4983610;28;20030;-82
2023/03/27 12:48:10;;;;;;;2.40;0.70;;;5.20;82.80;;;;;;4988614;28;20034;-79
2023/03/27 12:50:53;;;;;;;1.30;0.47;;;6.00;79.00;;;;;;4976750;28;20068;-83
2023/03/27 12:53:25;;;;;;;7.63;0.75;;;6.30;76.80;;;;;;4988234;28;20109;-85
2023/03/27 12:56:15;;;;;;;2.38;0.68;;;6.50;74.90;;;;;;4986297;28;20058;-84
2023/03/27 12:58:41;;;;;;;4.43;0.57;;;7.40;75.90;;;;;;4988744;28;20066;-79
2023/03/27 13:01:09;;;;;;;5.78;0.80;;;7.60;72.90;;;;;;4981447;28;20042;-84
2023/03/27 13:04:09;;;;;;;3.92;0.70;;;8.30;71.60;;;;;;4985793;28;20040;-82
2023/03/27 13:07:03;;;;;;;3.70;0.60;;;8.50;69.00;;;;;;4987394;28;20419;-84
2023/03/27 13:10:02;;;;;;;3.28;0.70;;;8.40;69.20;;;;;;4990635;28;20042;-82
2023/03/27 13:12:58;;;;;;;3.20;0.70;;;7.40;71.80;;;;;;4960452;28;20108;-83
2023/03/27 13:15:50;;;;;;;3.88;0.70;;;6.20;75.40;;;;;;4992395;28;20466;-81
2023/03/27 13:18:50;;;;;;;1.88;0.65;;;4.80;80.70;;;;;;4984280;28;20097;-80
2023/03/27 13:21:49;;;;;;;3.78;0.70;;;4.20;83.30;;;;;;4985482;28;20022;-80
2023/03/27 13:24:30;;;;;;;5.63;1.10;;;4.20;83.90;;;;;;4989982;28;20041;-82
2023/03/27 13:27:29;;;;;;;2.80;0.93;;;4.80;82.60;;;;;;4980479;28;20029;-81